Great Ocean — 3FDA5 — position and weather

sailwx.info

Track history (hours):
 
Tides and Currents Weather Stations Pressure Air Temp Water Temp Dewpoint Dewpoint Depression Visibility Wind Speed Wind Dir Waves Ship Positions

Great Ocean

Last reported at 2014-Oct-30 11:31 UTC. Time now 2014-Oct-31 11:34 UTC.
Position N 01°16' E 104°10'.

Length 180 m; draft 6.5 m.

Type: Cargo ship. MMSI: 371452000.

Date/timePositionNaut miles runAvg speedWind from/ knotsBaromVisibWave heightAir tempDewpointWater temp
2014-Oct-30 11:31N 01°16' E 104°10'1414.5
2014-Oct-30 10:33N 01°13' E 103°56'4 4.2
2014-Oct-30 09:32N 01°16' E 103°53'0 0.0
2014-Oct-30 08:26N 01°16' E 103°53'0 0.2
2014-Oct-30 07:32N 01°15' E 103°53'0 0.1
2014-Oct-30 06:27N 01°15' E 103°52'0 0.0
2014-Oct-30 05:32N 01°15' E 103°52'0 0.0
2014-Oct-30 04:32N 01°15' E 103°52'0 0.0
2014-Oct-30 03:32N 01°15' E 103°52'0 0.0
2014-Oct-30 02:29N 01°15' E 103°52'0 0.0
2014-Oct-30 01:26N 01°15' E 103°52'0 0.1
2014-Oct-30 00:33N 01°15' E 103°52'3 3.0
2014-Oct-29 23:33N 01°14' E 103°55'9 8.9
2014-Oct-29 22:33N 01°16' E 104°04'1010.0
2014-Oct-29 21:33N 01°18' E 104°13'7 0.2
2014-Oct-28 01:33N 01°15' E 104°07'1111.2
2014-Oct-28 00:33N 01°13' E 103°56'1111.0
2014-Oct-27 23:33N 01°08' E 103°46'  
Track history (hours):
 
Tides and Currents Weather Stations Pressure Air Temp Water Temp Dewpoint Dewpoint Depression Visibility Wind Speed Wind Dir Waves Ship Positions

Great Ocean

Last reported at 2014-Oct-30 11:31 UTC. Time now 2014-Oct-31 11:34 UTC.
Position N 01°16' E 104°10'.

Length 180 m; draft 6.5 m.

Type: Cargo ship. MMSI: 371452000.

Date/timePositionNaut miles runAvg speedWind from/ knotsBaromVisibWave heightAir tempDewpointWater temp
2014-Oct-30 11:31N 01°16' E 104°10'1414.5
2014-Oct-30 10:33N 01°13' E 103°56'4 4.2
2014-Oct-30 09:32N 01°16' E 103°53'0 0.0
2014-Oct-30 08:26N 01°16' E 103°53'0 0.2
2014-Oct-30 07:32N 01°15' E 103°53'0 0.1
2014-Oct-30 06:27N 01°15' E 103°52'0 0.0
2014-Oct-30 05:32N 01°15' E 103°52'0 0.0
2014-Oct-30 04:32N 01°15' E 103°52'0 0.0
2014-Oct-30 03:32N 01°15' E 103°52'0 0.0
2014-Oct-30 02:29N 01°15' E 103°52'0 0.0
2014-Oct-30 01:26N 01°15' E 103°52'0 0.1
2014-Oct-30 00:33N 01°15' E 103°52'3 3.0
2014-Oct-29 23:33N 01°14' E 103°55'9 8.9
2014-Oct-29 22:33N 01°16' E 104°04'1010.0
2014-Oct-29 21:33N 01°18' E 104°13'7 0.2
2014-Oct-28 01:33N 01°15' E 104°07'1111.2
2014-Oct-28 00:33N 01°13' E 103°56'1111.0
2014-Oct-27 23:33N 01°08' E 103°46'  

Dump ship's entire track history